GEC8410 EDDF-ZUUU
Flight info
| Callsign | GEC8410 |
|---|---|
| Flight time | N/A |
| Altitude | 31000 |
| Route | CINDY8S/18 CINDY Z74 HAREM DCT ASLEP DCT TAKUT DCT DINKU L603 BESNI/N0473F370 L605 MIQ DCT ALUTU DCT BIBAG L605 ESEGA DCT VELOM DCT STEIN DCT GITAS DCT TEGRI DCT LUGEB DCT UDROS DCT CRM/N0470F390 UM11 TBN UN61 NOLGA DCT BARAD M747 SUBUT T916 BALUN/K0887F390 T916 REGMU/K0876F410 T916 PIGAL M610 RULAD/K0885S1250 A460 XKC L888 SADAN Y1 OMBON W245 OVRAL B330 MEXAD MEXAD9M |
| Aircraft | B77L/H-SDE2E3FGHIJ1J3J4J5M1P2RWXYZ/LB1D1 |
Departure
| Time | 2026-04-14 10:09 |
|---|---|
| Airport | Frankfurt Main Airport (EDDF) |
Arrival
| Time | N/A |
|---|---|
| Airport | Chengdu Shuangliu International Airport (ZUUU) |
| Time | Latitude | Longitude | Altitude | Speed | Heading |
|---|---|---|---|---|---|
| 2026-04-14 09:29 | 50.03716 | 8.53096 | 183 ft | 0 kts | 339° |
| 2026-04-14 09:54 | 50.03711 | 8.53098 | 357 ft | 4 kts | 339° |
| 2026-04-14 09:55 | 50.03686 | 8.53113 | 356 ft | 4 kts | 340° |
| 2026-04-14 09:55 | 50.03662 | 8.53127 | 356 ft | 4 kts | 323° |
| 2026-04-14 09:55 | 50.03647 | 8.53157 | 356 ft | 4 kts | 283° |
| 2026-04-14 09:55 | 50.03645 | 8.53199 | 356 ft | 4 kts | 263° |
| 2026-04-14 09:56 | 50.03650 | 8.53239 | 356 ft | 4 kts | 252° |
| 2026-04-14 09:56 | 50.03654 | 8.53255 | 356 ft | 1 kts | 249° |
| 2026-04-14 10:03 | 50.03653 | 8.53252 | 345 ft | 1 kts | 249° |
| 2026-04-14 10:03 | 50.03648 | 8.53231 | 358 ft | 3 kts | 249° |
| 2026-04-14 10:03 | 50.03634 | 8.53178 | 354 ft | 8 kts | 249° |
| 2026-04-14 10:04 | 50.03608 | 8.53080 | 353 ft | 10 kts | 236° |
| 2026-04-14 10:04 | 50.03543 | 8.53052 | 349 ft | 11 kts | 191° |
| 2026-04-14 10:04 | 50.03496 | 8.52965 | 351 ft | 9 kts | 247° |
| 2026-04-14 10:04 | 50.03480 | 8.52904 | 348 ft | 6 kts | 248° |
| 2026-04-14 10:05 | 50.03462 | 8.52840 | 336 ft | 7 kts | 246° |
| 2026-04-14 10:05 | 50.03449 | 8.52791 | 338 ft | 8 kts | 246° |
| 2026-04-14 10:05 | 50.03438 | 8.52750 | 336 ft | 0 kts | 249° |
| 2026-04-14 10:05 | 50.03438 | 8.52748 | 336 ft | 0 kts | 249° |
| 2026-04-14 10:06 | 50.03438 | 8.52747 | 336 ft | 0 kts | 249° |
| 2026-04-14 10:06 | 50.03437 | 8.52743 | 336 ft | 2 kts | 249° |
| 2026-04-14 10:06 | 50.03427 | 8.52703 | 336 ft | 6 kts | 249° |
| 2026-04-14 10:06 | 50.03405 | 8.52621 | 337 ft | 10 kts | 243° |
| 2026-04-14 10:07 | 50.03350 | 8.52594 | 337 ft | 0 kts | 179° |
| 2026-04-14 10:07 | 50.03349 | 8.52594 | 337 ft | 0 kts | 179° |
| 2026-04-14 10:08 | 50.03347 | 8.52594 | 337 ft | 5 kts | 179° |
| 2026-04-14 10:08 | 50.03098 | 8.52596 | 340 ft | 75 kts | 180° |
| 2026-04-14 10:09 | 50.02325 | 8.52605 | 337 ft | 144 kts | 179° |
| 2026-04-14 10:09 | 50.01145 | 8.52638 | 457 ft | 184 kts | 179° |
| 2026-04-14 10:09 | 49.99859 | 8.52659 | 1079 ft | 191 kts | 180° |
| 2026-04-14 10:09 | 49.98525 | 8.52685 | 1923 ft | 189 kts | 179° |
| 2026-04-14 10:10 | 49.97201 | 8.52775 | 2713 ft | 199 kts | 167° |
| 2026-04-14 10:10 | 49.95928 | 8.53860 | 3063 ft | 223 kts | 129° |
| 2026-04-14 10:10 | 49.95175 | 8.55959 | 3738 ft | 229 kts | 109° |
| 2026-04-14 10:10 | 49.94494 | 8.58353 | 4161 ft | 254 kts | 112° |
| 2026-04-14 10:11 | 49.93901 | 8.60945 | 4923 ft | 255 kts | 95° |
| 2026-04-14 10:11 | 49.93764 | 8.63711 | 5736 ft | 259 kts | 89° |
| 2026-04-14 10:11 | 49.93744 | 8.66535 | 6567 ft | 265 kts | 88° |
| 2026-04-14 10:11 | 49.93551 | 8.69437 | 7110 ft | 281 kts | 104° |
| 2026-04-14 10:12 | 49.92680 | 8.72187 | 7849 ft | 287 kts | 131° |
| 2026-04-14 10:12 | 49.91070 | 8.73980 | 8762 ft | 284 kts | 155° |
| 2026-04-14 10:12 | 49.89257 | 8.75190 | 9610 ft | 284 kts | 154° |
| 2026-04-14 10:12 | 49.87762 | 8.77203 | 10272 ft | 292 kts | 124° |
| 2026-04-14 10:13 | 49.86759 | 8.80013 | 10713 ft | 308 kts | 119° |
| 2026-04-14 10:13 | 49.85707 | 8.83029 | 10902 ft | 336 kts | 120° |
| 2026-04-14 10:13 | 49.84508 | 8.86359 | 11162 ft | 362 kts | 120° |
| 2026-04-14 10:13 | 49.83266 | 8.89772 | 11857 ft | 373 kts | 121° |
| 2026-04-14 10:14 | 49.81955 | 8.93377 | 12801 ft | 380 kts | 121° |
| 2026-04-14 10:14 | 49.80670 | 8.96915 | 13828 ft | 386 kts | 121° |
| 2026-04-14 10:14 | 49.79332 | 9.00596 | 14780 ft | 391 kts | 121° |
| 2026-04-14 10:14 | 49.78005 | 9.04236 | 15781 ft | 395 kts | 121° |
| 2026-04-14 10:15 | 49.76648 | 9.07957 | 16779 ft | 400 kts | 120° |
| 2026-04-14 10:15 | 49.75555 | 9.11933 | 17508 ft | 408 kts | 106° |
| 2026-04-14 10:15 | 49.74963 | 9.16268 | 18277 ft | 411 kts | 103° |
| 2026-04-14 10:15 | 49.74003 | 9.20402 | 18747 ft | 414 kts | 123° |
| 2026-04-14 10:16 | 49.72382 | 9.24081 | 19226 ft | 416 kts | 124° |
| 2026-04-14 10:16 | 49.70944 | 9.28024 | 19820 ft | 425 kts | 118° |
| 2026-04-14 10:16 | 49.69653 | 9.32127 | 20682 ft | 426 kts | 117° |
| 2026-04-14 10:16 | 49.68391 | 9.36269 | 21500 ft | 429 kts | 117° |
| 2026-04-14 10:17 | 49.67096 | 9.40445 | 22223 ft | 434 kts | 117° |
| 2026-04-14 10:17 | 49.65757 | 9.44641 | 22914 ft | 439 kts | 118° |
| 2026-04-14 10:17 | 49.64368 | 9.48874 | 23636 ft | 444 kts | 118° |
| 2026-04-14 10:17 | 49.62950 | 9.53114 | 24249 ft | 448 kts | 118° |
| 2026-04-14 10:18 | 49.60028 | 9.61716 | 25417 ft | 456 kts | 119° |
| 2026-04-14 10:18 | 49.58546 | 9.66046 | 26028 ft | 460 kts | 119° |
| 2026-04-14 10:18 | 49.57044 | 9.70425 | 26617 ft | 463 kts | 119° |
| 2026-04-14 10:19 | 49.55534 | 9.74821 | 27173 ft | 467 kts | 119° |
| 2026-04-14 10:19 | 49.54004 | 9.79270 | 27748 ft | 472 kts | 119° |
| 2026-04-14 10:19 | 49.52459 | 9.83758 | 28284 ft | 476 kts | 119° |
| 2026-04-14 10:19 | 49.50905 | 9.88267 | 28824 ft | 480 kts | 119° |
| 2026-04-14 10:20 | 49.49330 | 9.92828 | 29341 ft | 484 kts | 119° |
| 2026-04-14 10:20 | 49.47745 | 9.97410 | 29830 ft | 488 kts | 119° |
| 2026-04-14 10:20 | 49.46145 | 10.02027 | 30262 ft | 491 kts | 119° |
| 2026-04-14 10:20 | 49.44532 | 10.06677 | 30707 ft | 493 kts | 119° |
| 2026-04-14 10:21 | 49.42923 | 10.11304 | 31271 ft | 491 kts | 119° |
| 2026-04-14 10:21 | 49.41314 | 10.15926 | 31854 ft | 489 kts | 119° |
| 2026-04-14 10:21 | 49.39715 | 10.20512 | 32408 ft | 488 kts | 118° |
| 2026-04-14 10:21 | 49.38112 | 10.25097 | 32973 ft | 486 kts | 118° |
| 2026-04-14 10:22 | 49.36510 | 10.29670 | 33477 ft | 486 kts | 118° |
| 2026-04-14 10:22 | 49.34908 | 10.34235 | 33819 ft | 489 kts | 118° |
| 2026-04-14 10:22 | 49.33300 | 10.38811 | 34437 ft | 484 kts | 118° |
| 2026-04-14 10:22 | 49.31724 | 10.43285 | 34851 ft | 483 kts | 118° |
| 2026-04-14 10:23 | 49.30100 | 10.47890 | 35065 ft | 487 kts | 118° |
| 2026-04-14 10:23 | 49.28503 | 10.52409 | 35301 ft | 490 kts | 118° |
| 2026-04-14 10:23 | 49.26861 | 10.57046 | 35746 ft | 488 kts | 118° |
| 2026-04-14 10:23 | 49.25265 | 10.61548 | 36136 ft | 487 kts | 118° |
| 2026-04-14 10:24 | 49.21992 | 10.70754 | 36161 ft | 494 kts | 119° |
| 2026-04-14 10:24 | 49.18720 | 10.79927 | 36155 ft | 482 kts | 119° |
| 2026-04-14 10:25 | 49.15525 | 10.88849 | 36149 ft | 481 kts | 120° |
| 2026-04-14 10:25 | 49.12299 | 10.97824 | 36153 ft | 483 kts | 120° |
| 2026-04-14 10:26 | 49.09061 | 11.06806 | 36128 ft | 484 kts | 120° |
| 2026-04-14 10:26 | 49.05799 | 11.15822 | 36140 ft | 485 kts | 120° |
| 2026-04-14 10:27 | 49.02540 | 11.24801 | 36124 ft | 484 kts | 120° |
| 2026-04-14 10:27 | 48.99276 | 11.33760 | 36121 ft | 483 kts | 120° |
| 2026-04-14 10:28 | 48.96013 | 11.42687 | 36123 ft | 482 kts | 121° |
| 2026-04-14 10:28 | 48.92749 | 11.51587 | 36119 ft | 481 kts | 120° |
| 2026-04-14 10:29 | 48.89478 | 11.60476 | 36126 ft | 481 kts | 121° |
| 2026-04-14 10:29 | 48.86208 | 11.69328 | 36125 ft | 480 kts | 121° |
| 2026-04-14 10:30 | 48.82932 | 11.78169 | 36125 ft | 481 kts | 121° |
| 2026-04-14 10:30 | 48.79645 | 11.87012 | 36114 ft | 481 kts | 121° |
| 2026-04-14 10:31 | 48.76353 | 11.95837 | 36108 ft | 480 kts | 121° |
| 2026-04-14 10:31 | 48.73084 | 12.04572 | 36103 ft | 478 kts | 121° |
| 2026-04-14 10:32 | 48.69801 | 12.13314 | 36102 ft | 477 kts | 121° |
| 2026-04-14 10:32 | 48.66516 | 12.22030 | 36102 ft | 477 kts | 121° |
| 2026-04-14 10:33 | 48.63228 | 12.30731 | 36093 ft | 477 kts | 122° |
| 2026-04-14 10:33 | 48.59931 | 12.39423 | 36094 ft | 477 kts | 122° |
| 2026-04-14 10:34 | 48.54967 | 12.52457 | 36095 ft | 478 kts | 122° |
| 2026-04-14 10:35 | 48.51646 | 12.61143 | 36089 ft | 478 kts | 122° |
| 2026-04-14 10:35 | 48.48314 | 12.69827 | 36089 ft | 479 kts | 122° |
| 2026-04-14 10:36 | 48.44971 | 12.78514 | 36113 ft | 479 kts | 122° |
| 2026-04-14 10:36 | 48.41611 | 12.87216 | 36092 ft | 480 kts | 122° |
| 2026-04-14 10:37 | 48.38252 | 12.95888 | 36088 ft | 480 kts | 122° |
| 2026-04-14 10:37 | 48.34887 | 13.04548 | 36102 ft | 479 kts | 123° |
| 2026-04-14 10:37 | 48.33201 | 13.08878 | 36215 ft | 483 kts | 123° |
| 2026-04-14 10:38 | 48.31496 | 13.13245 | 36484 ft | 484 kts | 122° |
| 2026-04-14 10:38 | 48.29861 | 13.17673 | 36832 ft | 485 kts | 118° |
| 2026-04-14 10:38 | 48.28496 | 13.22303 | 37052 ft | 489 kts | 112° |
| 2026-04-14 10:39 | 48.26284 | 13.31979 | 37082 ft | 489 kts | 110° |
| 2026-04-14 10:39 | 48.24081 | 13.41560 | 37082 ft | 483 kts | 111° |
| 2026-04-14 10:40 | 48.21829 | 13.51048 | 37090 ft | 483 kts | 111° |
| 2026-04-14 10:40 | 48.19559 | 13.60522 | 37101 ft | 484 kts | 111° |
| 2026-04-14 10:41 | 48.17276 | 13.70011 | 37087 ft | 485 kts | 112° |
| 2026-04-14 10:41 | 48.14981 | 13.79519 | 37085 ft | 486 kts | 112° |
| 2026-04-14 10:42 | 48.12688 | 13.88984 | 37082 ft | 486 kts | 112° |
| 2026-04-14 10:42 | 48.10377 | 13.98486 | 37084 ft | 486 kts | 112° |
| 2026-04-14 10:43 | 48.08061 | 14.07967 | 37095 ft | 485 kts | 112° |
| 2026-04-14 10:43 | 48.05722 | 14.17494 | 37091 ft | 484 kts | 112° |
| 2026-04-14 10:44 | 48.03398 | 14.26926 | 37095 ft | 483 kts | 112° |
| 2026-04-14 10:44 | 48.01082 | 14.36286 | 37087 ft | 483 kts | 112° |
| 2026-04-14 10:45 | 47.98749 | 14.45673 | 37087 ft | 482 kts | 112° |
| 2026-04-14 10:45 | 47.96411 | 14.55042 | 37076 ft | 482 kts | 112° |
| 2026-04-14 10:46 | 47.94069 | 14.64384 | 37075 ft | 480 kts | 112° |
| 2026-04-14 10:46 | 47.91726 | 14.73704 | 37077 ft | 480 kts | 113° |
| 2026-04-14 10:47 | 47.89368 | 14.83028 | 37081 ft | 480 kts | 113° |
| 2026-04-14 10:47 | 47.87007 | 14.92332 | 37080 ft | 480 kts | 113° |
| 2026-04-14 10:48 | 47.84640 | 15.01623 | 37080 ft | 480 kts | 113° |
| 2026-04-14 10:48 | 47.82266 | 15.10907 | 37074 ft | 480 kts | 113° |
| 2026-04-14 10:49 | 47.79883 | 15.20186 | 37080 ft | 481 kts | 113° |
| 2026-04-14 10:49 | 47.77483 | 15.29493 | 37069 ft | 481 kts | 113° |
| 2026-04-14 10:50 | 47.75080 | 15.38775 | 37065 ft | 481 kts | 113° |
| 2026-04-14 10:50 | 47.72674 | 15.48031 | 37070 ft | 480 kts | 113° |
| 2026-04-14 10:51 | 47.70262 | 15.57270 | 37074 ft | 480 kts | 114° |
| 2026-04-14 10:51 | 47.67844 | 15.66500 | 37079 ft | 480 kts | 114° |
| 2026-04-14 10:52 | 47.65823 | 15.74182 | 37071 ft | 481 kts | 114° |
| 2026-04-14 10:52 | 47.63388 | 15.83405 | 37075 ft | 480 kts | 114° |
| 2026-04-14 10:53 | 47.60951 | 15.92604 | 37075 ft | 479 kts | 114° |
| 2026-04-14 10:53 | 47.58505 | 16.01800 | 37087 ft | 479 kts | 114° |
| 2026-04-14 10:54 | 47.56054 | 16.10976 | 37069 ft | 480 kts | 114° |
| 2026-04-14 10:54 | 47.53594 | 16.20146 | 37101 ft | 479 kts | 114° |
| 2026-04-14 10:55 | 47.51127 | 16.29313 | 37103 ft | 480 kts | 114° |
| 2026-04-14 10:55 | 47.48648 | 16.38488 | 37089 ft | 481 kts | 114° |
| 2026-04-14 10:56 | 47.46157 | 16.47675 | 37103 ft | 481 kts | 114° |
| 2026-04-14 10:56 | 47.43664 | 16.56834 | 37083 ft | 480 kts | 114° |
| 2026-04-14 10:57 | 47.41360 | 16.66020 | 37102 ft | 481 kts | 111° |
| 2026-04-14 10:57 | 47.39231 | 16.75375 | 37078 ft | 481 kts | 111° |
| 2026-04-14 10:58 | 47.37101 | 16.84737 | 37074 ft | 480 kts | 111° |
| 2026-04-14 10:58 | 47.34952 | 16.94060 | 37091 ft | 480 kts | 111° |
| 2026-04-14 10:59 | 47.32786 | 17.03370 | 37087 ft | 480 kts | 111° |
| 2026-04-14 10:59 | 47.30611 | 17.12673 | 37076 ft | 480 kts | 111° |
| 2026-04-14 11:00 | 47.28428 | 17.21971 | 37089 ft | 481 kts | 111° |
| 2026-04-14 11:00 | 47.26235 | 17.31280 | 37100 ft | 481 kts | 111° |
| 2026-04-14 11:01 | 47.24036 | 17.40573 | 37101 ft | 481 kts | 111° |
| 2026-04-14 11:01 | 47.21827 | 17.49867 | 37098 ft | 482 kts | 111° |
| 2026-04-14 11:02 | 47.19609 | 17.59159 | 37093 ft | 482 kts | 111° |
| 2026-04-14 11:02 | 47.17384 | 17.68447 | 37084 ft | 482 kts | 111° |
| 2026-04-14 11:03 | 47.15161 | 17.77681 | 37090 ft | 482 kts | 111° |
| 2026-04-14 11:03 | 47.12918 | 17.86964 | 37082 ft | 482 kts | 111° |
| 2026-04-14 11:04 | 47.10667 | 17.96241 | 37089 ft | 482 kts | 112° |
| 2026-04-14 11:04 | 47.08409 | 18.05510 | 37085 ft | 482 kts | 111° |
| 2026-04-14 11:05 | 47.06145 | 18.14771 | 37091 ft | 483 kts | 111° |
| 2026-04-14 11:05 | 47.03840 | 18.24028 | 37099 ft | 483 kts | 112° |
| 2026-04-14 11:06 | 47.01480 | 18.33238 | 37098 ft | 483 kts | 112° |
| 2026-04-14 11:06 | 46.99110 | 18.42444 | 37094 ft | 483 kts | 112° |
| 2026-04-14 11:07 | 46.96740 | 18.51652 | 37115 ft | 484 kts | 112° |
| 2026-04-14 11:07 | 46.94359 | 18.60881 | 37097 ft | 485 kts | 112° |
| 2026-04-14 11:08 | 46.91972 | 18.70101 | 37099 ft | 484 kts | 112° |
| 2026-04-14 11:08 | 46.89577 | 18.79313 | 37106 ft | 484 kts | 112° |
| 2026-04-14 11:09 | 46.87198 | 18.88424 | 37107 ft | 483 kts | 112° |
| 2026-04-14 11:09 | 46.84797 | 18.97587 | 37109 ft | 483 kts | 112° |
| 2026-04-14 11:10 | 46.81181 | 19.11314 | 37107 ft | 483 kts | 113° |
| 2026-04-14 11:10 | 46.78763 | 19.20449 | 37113 ft | 483 kts | 113° |
| 2026-04-14 11:11 | 46.76337 | 19.29579 | 37112 ft | 483 kts | 113° |
| 2026-04-14 11:11 | 46.73897 | 19.38725 | 37115 ft | 483 kts | 113° |
| 2026-04-14 11:12 | 46.71453 | 19.47853 | 37110 ft | 484 kts | 113° |
| 2026-04-14 11:12 | 46.68995 | 19.56996 | 37117 ft | 484 kts | 113° |
| 2026-04-14 11:13 | 46.66535 | 19.66112 | 37119 ft | 484 kts | 113° |
| 2026-04-14 11:13 | 46.64059 | 19.75255 | 37122 ft | 485 kts | 114° |
| 2026-04-14 11:14 | 46.61580 | 19.84368 | 37118 ft | 485 kts | 114° |
| 2026-04-14 11:14 | 46.59099 | 19.93456 | 37113 ft | 485 kts | 114° |
| 2026-04-14 11:15 | 46.56604 | 20.02564 | 37114 ft | 484 kts | 114° |
| 2026-04-14 11:15 | 46.54106 | 20.11641 | 37117 ft | 484 kts | 114° |
| 2026-04-14 11:16 | 46.51603 | 20.20708 | 37112 ft | 484 kts | 114° |
| 2026-04-14 11:16 | 46.49093 | 20.29763 | 37110 ft | 484 kts | 114° |
| 2026-04-14 11:17 | 46.46578 | 20.38805 | 37111 ft | 483 kts | 114° |
| 2026-04-14 11:17 | 46.44051 | 20.47854 | 37114 ft | 483 kts | 114° |
| 2026-04-14 11:18 | 46.41520 | 20.56881 | 37101 ft | 483 kts | 114° |
| 2026-04-14 11:18 | 46.38984 | 20.65897 | 37108 ft | 483 kts | 114° |
| 2026-04-14 11:19 | 46.36440 | 20.74906 | 37101 ft | 483 kts | 114° |
| 2026-04-14 11:19 | 46.33890 | 20.83904 | 37102 ft | 483 kts | 114° |
| 2026-04-14 11:20 | 46.31346 | 20.92849 | 37098 ft | 483 kts | 114° |
| 2026-04-14 11:20 | 46.28781 | 21.01836 | 37103 ft | 484 kts | 114° |
| 2026-04-14 11:21 | 46.26209 | 21.10816 | 37102 ft | 484 kts | 114° |
| 2026-04-14 11:21 | 46.23577 | 21.19773 | 37104 ft | 484 kts | 115° |
| 2026-04-14 11:22 | 46.20911 | 21.28693 | 37103 ft | 484 kts | 115° |
| 2026-04-14 11:22 | 46.18242 | 21.37609 | 37106 ft | 484 kts | 115° |
| 2026-04-14 11:23 | 46.15571 | 21.46523 | 37100 ft | 484 kts | 115° |
| 2026-04-14 11:23 | 46.12897 | 21.55431 | 37099 ft | 484 kts | 115° |
| 2026-04-14 11:24 | 46.10216 | 21.64329 | 37090 ft | 484 kts | 115° |
| 2026-04-14 11:24 | 46.07526 | 21.73225 | 37092 ft | 484 kts | 115° |
| 2026-04-14 11:25 | 46.04826 | 21.82123 | 37086 ft | 484 kts | 115° |
| 2026-04-14 11:25 | 46.02124 | 21.90993 | 37091 ft | 484 kts | 115° |
| 2026-04-14 11:26 | 45.99416 | 21.99855 | 37091 ft | 484 kts | 115° |
| 2026-04-14 11:26 | 45.96701 | 22.08705 | 37099 ft | 484 kts | 115° |
| 2026-04-14 11:27 | 45.93975 | 22.17561 | 37093 ft | 484 kts | 115° |
| 2026-04-14 11:27 | 45.91248 | 22.26392 | 37091 ft | 484 kts | 115° |
| 2026-04-14 11:28 | 45.88533 | 22.35153 | 37103 ft | 484 kts | 115° |
| 2026-04-14 11:28 | 45.85789 | 22.43974 | 37098 ft | 484 kts | 115° |
| 2026-04-14 11:29 | 45.83037 | 22.52794 | 37103 ft | 485 kts | 115° |
| 2026-04-14 11:29 | 45.80273 | 22.61622 | 37092 ft | 485 kts | 116° |
| 2026-04-14 11:30 | 45.77502 | 22.70438 | 37110 ft | 486 kts | 116° |
| 2026-04-14 11:30 | 45.74699 | 22.79327 | 37104 ft | 487 kts | 116° |
| 2026-04-14 11:31 | 45.71906 | 22.88152 | 37124 ft | 487 kts | 116° |
| 2026-04-14 11:31 | 45.69120 | 22.96931 | 37112 ft | 487 kts | 116° |
| 2026-04-14 11:32 | 45.66311 | 23.05748 | 37126 ft | 487 kts | 116° |
| 2026-04-14 11:32 | 45.63497 | 23.14552 | 37148 ft | 487 kts | 116° |
| 2026-04-14 11:33 | 45.60671 | 23.23360 | 37143 ft | 487 kts | 116° |
| 2026-04-14 11:34 | 45.56431 | 23.36524 | 37154 ft | 487 kts | 116° |
| 2026-04-14 11:34 | 45.53591 | 23.45305 | 37168 ft | 488 kts | 116° |
| 2026-04-14 11:35 | 45.50734 | 23.54103 | 37183 ft | 489 kts | 116° |
| 2026-04-14 11:35 | 45.47870 | 23.62895 | 37176 ft | 490 kts | 116° |
| 2026-04-14 11:36 | 45.44996 | 23.71694 | 37195 ft | 490 kts | 116° |
| 2026-04-14 11:36 | 45.42112 | 23.80488 | 37197 ft | 490 kts | 116° |
| 2026-04-14 11:37 | 45.39223 | 23.89270 | 37196 ft | 490 kts | 116° |
| 2026-04-14 11:37 | 45.36325 | 23.98051 | 37203 ft | 490 kts | 116° |
| 2026-04-14 11:38 | 45.33425 | 24.06806 | 37212 ft | 490 kts | 116° |
| 2026-04-14 11:38 | 45.30520 | 24.15549 | 37208 ft | 489 kts | 116° |
| 2026-04-14 11:39 | 45.27611 | 24.24275 | 37223 ft | 489 kts | 117° |
| 2026-04-14 11:39 | 45.24692 | 24.33000 | 37224 ft | 489 kts | 117° |
| 2026-04-14 11:40 | 45.21768 | 24.41710 | 37227 ft | 489 kts | 117° |
| 2026-04-14 11:40 | 45.18835 | 24.50421 | 37226 ft | 490 kts | 117° |
| 2026-04-14 11:41 | 45.15894 | 24.59127 | 37229 ft | 490 kts | 117° |
| 2026-04-14 11:41 | 45.13441 | 24.66368 | 37229 ft | 490 kts | 117° |
| 2026-04-14 11:42 | 45.10483 | 24.75070 | 37236 ft | 491 kts | 117° |
| 2026-04-14 11:42 | 45.07511 | 24.83787 | 37238 ft | 491 kts | 117° |
| 2026-04-14 11:43 | 45.04536 | 24.92483 | 37229 ft | 491 kts | 117° |
| 2026-04-14 11:43 | 45.01553 | 25.01175 | 37237 ft | 492 kts | 117° |
| 2026-04-14 11:44 | 44.98562 | 25.09864 | 37244 ft | 492 kts | 117° |
| 2026-04-14 11:44 | 44.95561 | 25.18549 | 37250 ft | 492 kts | 117° |
| 2026-04-14 11:45 | 44.92570 | 25.27182 | 37239 ft | 492 kts | 117° |
| 2026-04-14 11:45 | 44.89534 | 25.35912 | 37241 ft | 493 kts | 117° |
| 2026-04-14 11:46 | 44.86509 | 25.44585 | 37249 ft | 493 kts | 117° |
| 2026-04-14 11:46 | 44.83492 | 25.53207 | 37258 ft | 494 kts | 118° |
| 2026-04-14 11:47 | 44.80447 | 25.61880 | 37252 ft | 494 kts | 118° |
| 2026-04-14 11:47 | 44.77393 | 25.70553 | 37252 ft | 495 kts | 118° |
| 2026-04-14 11:48 | 44.74324 | 25.79239 | 37258 ft | 495 kts | 118° |
| 2026-04-14 11:48 | 44.71254 | 25.87901 | 37246 ft | 495 kts | 118° |
| 2026-04-14 11:49 | 44.68174 | 25.96563 | 37258 ft | 496 kts | 118° |
| 2026-04-14 11:49 | 44.65085 | 26.05223 | 37262 ft | 496 kts | 118° |
| 2026-04-14 11:50 | 44.61988 | 26.13879 | 37276 ft | 496 kts | 118° |
| 2026-04-14 11:50 | 44.58878 | 26.22539 | 37277 ft | 497 kts | 118° |
| 2026-04-14 11:51 | 44.54202 | 26.35515 | 37258 ft | 497 kts | 118° |
| 2026-04-14 11:51 | 44.51076 | 26.44153 | 37261 ft | 497 kts | 118° |
| 2026-04-14 11:52 | 44.47943 | 26.52785 | 37262 ft | 497 kts | 118° |
| 2026-04-14 11:52 | 44.44800 | 26.61416 | 37245 ft | 498 kts | 118° |
| 2026-04-14 11:53 | 44.41667 | 26.69995 | 37246 ft | 498 kts | 118° |
| 2026-04-14 11:53 | 44.38508 | 26.78616 | 37261 ft | 498 kts | 118° |
| 2026-04-14 11:54 | 44.35342 | 26.87228 | 37272 ft | 498 kts | 118° |
| 2026-04-14 11:54 | 44.32170 | 26.95834 | 37269 ft | 498 kts | 118° |
| 2026-04-14 11:55 | 44.28991 | 27.04427 | 37250 ft | 498 kts | 118° |
| 2026-04-14 11:55 | 44.25803 | 27.13020 | 37265 ft | 498 kts | 119° |
| 2026-04-14 11:56 | 44.22608 | 27.21605 | 37265 ft | 499 kts | 119° |
| 2026-04-14 11:56 | 44.19401 | 27.30197 | 37268 ft | 500 kts | 119° |
| 2026-04-14 11:57 | 44.16182 | 27.38793 | 37271 ft | 501 kts | 119° |
| 2026-04-14 11:57 | 44.12944 | 27.47412 | 37278 ft | 502 kts | 119° |
| 2026-04-14 11:58 | 44.09699 | 27.56024 | 37281 ft | 503 kts | 119° |
| 2026-04-14 11:58 | 44.06443 | 27.64640 | 37279 ft | 504 kts | 119° |
| 2026-04-14 11:59 | 44.03178 | 27.73253 | 37287 ft | 504 kts | 119° |
| 2026-04-14 11:59 | 43.99903 | 27.81865 | 37291 ft | 504 kts | 119° |
| 2026-04-14 12:00 | 43.96614 | 27.90485 | 37292 ft | 504 kts | 119° |
| 2026-04-14 12:00 | 43.93326 | 27.99081 | 37297 ft | 504 kts | 119° |
| 2026-04-14 12:01 | 43.90031 | 28.07665 | 37308 ft | 505 kts | 119° |
| 2026-04-14 12:01 | 43.86727 | 28.16248 | 37311 ft | 505 kts | 120° |
| 2026-04-14 12:02 | 43.83417 | 28.24819 | 37310 ft | 505 kts | 120° |
| 2026-04-14 12:02 | 43.80099 | 28.33386 | 37308 ft | 505 kts | 120° |
| 2026-04-14 12:03 | 43.76769 | 28.41964 | 37316 ft | 505 kts | 120° |
| 2026-04-14 12:03 | 43.73419 | 28.50513 | 37317 ft | 505 kts | 121° |
| 2026-04-14 12:04 | 43.69697 | 28.58737 | 37323 ft | 505 kts | 124° |
| 2026-04-14 12:04 | 43.65887 | 28.66895 | 37322 ft | 506 kts | 124° |
| 2026-04-14 12:05 | 43.62073 | 28.75082 | 37319 ft | 507 kts | 124° |
| 2026-04-14 12:05 | 43.58275 | 28.83261 | 37320 ft | 507 kts | 124° |
| 2026-04-14 12:06 | 43.54490 | 28.91406 | 37318 ft | 508 kts | 124° |
| 2026-04-14 12:06 | 43.50643 | 28.99661 | 37319 ft | 509 kts | 124° |
| 2026-04-14 12:07 | 43.46810 | 29.07858 | 37322 ft | 509 kts | 124° |
| 2026-04-14 12:07 | 43.42968 | 29.16051 | 37316 ft | 510 kts | 124° |
| 2026-04-14 12:08 | 43.39138 | 29.24196 | 37322 ft | 510 kts | 124° |
| 2026-04-14 12:08 | 43.35280 | 29.32377 | 37320 ft | 510 kts | 124° |
| 2026-04-14 12:09 | 43.31414 | 29.40554 | 37316 ft | 511 kts | 124° |
| 2026-04-14 12:09 | 43.27513 | 29.48781 | 37319 ft | 511 kts | 124° |
| 2026-04-14 12:10 | 43.23630 | 29.56946 | 37318 ft | 511 kts | 124° |
| 2026-04-14 12:10 | 43.19761 | 29.65062 | 37318 ft | 511 kts | 124° |
| 2026-04-14 12:11 | 43.15830 | 29.73283 | 37318 ft | 512 kts | 125° |
| 2026-04-14 12:11 | 43.11951 | 29.81374 | 37318 ft | 511 kts | 125° |
| 2026-04-14 12:12 | 43.08043 | 29.89503 | 37312 ft | 511 kts | 125° |
| 2026-04-14 12:12 | 43.04127 | 29.97625 | 37317 ft | 512 kts | 125° |
| 2026-04-14 12:13 | 43.00203 | 30.05742 | 37316 ft | 512 kts | 125° |
| 2026-04-14 12:13 | 42.96266 | 30.13864 | 37315 ft | 513 kts | 125° |
| 2026-04-14 12:14 | 42.92323 | 30.21977 | 37315 ft | 513 kts | 125° |
| 2026-04-14 12:14 | 42.88365 | 30.30100 | 37320 ft | 514 kts | 125° |
| 2026-04-14 12:15 | 42.84401 | 30.38212 | 37318 ft | 515 kts | 125° |
| 2026-04-14 12:15 | 42.80425 | 30.46328 | 37314 ft | 515 kts | 125° |
| 2026-04-14 12:16 | 42.76452 | 30.54442 | 37319 ft | 516 kts | 123° |
| 2026-04-14 12:16 | 42.73190 | 30.63142 | 37317 ft | 517 kts | 112° |
| 2026-04-14 12:17 | 42.70999 | 30.72431 | 37314 ft | 517 kts | 106° |
| 2026-04-14 12:17 | 42.69014 | 30.81832 | 37316 ft | 518 kts | 105° |
| 2026-04-14 12:18 | 42.66995 | 30.91227 | 37316 ft | 518 kts | 106° |
| 2026-04-14 12:18 | 42.64935 | 31.00624 | 37316 ft | 518 kts | 106° |
| 2026-04-14 12:19 | 42.62861 | 31.10001 | 37304 ft | 519 kts | 106° |
| 2026-04-14 12:19 | 42.60777 | 31.19378 | 37314 ft | 519 kts | 106° |
| 2026-04-14 12:20 | 42.58686 | 31.28757 | 37315 ft | 520 kts | 107° |
| 2026-04-14 12:20 | 42.56586 | 31.38140 | 37319 ft | 520 kts | 106° |
| 2026-04-14 12:21 | 42.54473 | 31.47539 | 37314 ft | 521 kts | 107° |
| 2026-04-14 12:21 | 42.52354 | 31.56926 | 37314 ft | 521 kts | 107° |
| 2026-04-14 12:22 | 42.50226 | 31.66310 | 37313 ft | 521 kts | 107° |
| 2026-04-14 12:22 | 42.48089 | 31.75695 | 37311 ft | 522 kts | 107° |
| 2026-04-14 12:23 | 42.45955 | 31.85026 | 37313 ft | 522 kts | 107° |
| 2026-04-14 12:23 | 42.43801 | 31.94406 | 37313 ft | 522 kts | 107° |
| 2026-04-14 12:24 | 42.41639 | 32.03783 | 37317 ft | 522 kts | 107° |
| 2026-04-14 12:24 | 42.39466 | 32.13164 | 37312 ft | 523 kts | 107° |
| 2026-04-14 12:25 | 42.37284 | 32.22548 | 37311 ft | 523 kts | 107° |
| 2026-04-14 12:25 | 42.35093 | 32.31931 | 37311 ft | 524 kts | 107° |
| 2026-04-14 12:26 | 42.32887 | 32.41333 | 37308 ft | 524 kts | 107° |
| 2026-04-14 12:26 | 42.30676 | 32.50723 | 37331 ft | 525 kts | 107° |
| 2026-04-14 12:27 | 42.28454 | 32.60119 | 37320 ft | 525 kts | 107° |
| 2026-04-14 12:27 | 42.26599 | 32.67933 | 37307 ft | 525 kts | 107° |
| 2026-04-14 12:28 | 42.24363 | 32.77318 | 37312 ft | 525 kts | 107° |
| 2026-04-14 12:28 | 42.22119 | 32.86693 | 37322 ft | 525 kts | 107° |
| 2026-04-14 12:29 | 42.19869 | 32.96059 | 37314 ft | 525 kts | 107° |
| 2026-04-14 12:29 | 42.17607 | 33.05436 | 37310 ft | 525 kts | 107° |
| 2026-04-14 12:30 | 42.15340 | 33.14797 | 37312 ft | 526 kts | 107° |
| 2026-04-14 12:30 | 42.13062 | 33.24163 | 37313 ft | 526 kts | 107° |
| 2026-04-14 12:31 | 42.10762 | 33.33582 | 37679 ft | 531 kts | 107° |
| 2026-04-14 12:31 | 42.09605 | 33.38305 | 38139 ft | 529 kts | 107° |
| 2026-04-14 12:31 | 42.08455 | 33.42985 | 38633 ft | 526 kts | 107° |
| 2026-04-14 12:32 | 42.07306 | 33.47655 | 39080 ft | 524 kts | 107° |
| 2026-04-14 12:32 | 42.06159 | 33.52311 | 39339 ft | 524 kts | 107° |
| 2026-04-14 12:32 | 42.03851 | 33.61647 | 39309 ft | 527 kts | 107° |
| 2026-04-14 12:33 | 42.01543 | 33.70947 | 39288 ft | 522 kts | 107° |
| 2026-04-14 12:33 | 41.99241 | 33.80183 | 39291 ft | 520 kts | 107° |
| 2026-04-14 12:34 | 41.96940 | 33.89386 | 39308 ft | 519 kts | 107° |
| 2026-04-14 12:34 | 41.94641 | 33.98542 | 39297 ft | 521 kts | 107° |
| 2026-04-14 12:35 | 41.92298 | 34.07841 | 39297 ft | 523 kts | 107° |
| 2026-04-14 12:35 | 41.89954 | 34.17097 | 39295 ft | 524 kts | 107° |
| 2026-04-14 12:36 | 41.87599 | 34.26365 | 39294 ft | 526 kts | 107° |
| 2026-04-14 12:36 | 41.85244 | 34.35599 | 39287 ft | 527 kts | 107° |
| 2026-04-14 12:37 | 41.82862 | 34.44900 | 39282 ft | 528 kts | 107° |
| 2026-04-14 12:37 | 41.80471 | 34.54201 | 39279 ft | 528 kts | 107° |
| 2026-04-14 12:38 | 41.76874 | 34.68125 | 39288 ft | 527 kts | 108° |
| 2026-04-14 12:39 | 41.74470 | 34.77387 | 39285 ft | 527 kts | 107° |
| 2026-04-14 12:39 | 41.72059 | 34.86640 | 39288 ft | 527 kts | 107° |
| 2026-04-14 12:40 | 41.69640 | 34.95891 | 39317 ft | 527 kts | 108° |
| 2026-04-14 12:40 | 41.67210 | 35.05148 | 39307 ft | 528 kts | 108° |
| 2026-04-14 12:41 | 41.64766 | 35.14418 | 39317 ft | 528 kts | 108° |
| 2026-04-14 12:41 | 41.62319 | 35.23667 | 39302 ft | 528 kts | 108° |
| 2026-04-14 12:42 | 41.59867 | 35.32903 | 39309 ft | 528 kts | 108° |
| 2026-04-14 12:42 | 41.57406 | 35.42133 | 39314 ft | 528 kts | 108° |
| 2026-04-14 12:43 | 41.54938 | 35.51356 | 39309 ft | 528 kts | 108° |
| 2026-04-14 12:43 | 41.52459 | 35.60585 | 39318 ft | 527 kts | 108° |
| 2026-04-14 12:44 | 41.49980 | 35.69786 | 39320 ft | 527 kts | 108° |
| 2026-04-14 12:44 | 41.47491 | 35.78985 | 39325 ft | 528 kts | 108° |
| 2026-04-14 12:45 | 41.43738 | 35.92791 | 39337 ft | 529 kts | 108° |
| 2026-04-14 12:45 | 41.41224 | 36.01997 | 39352 ft | 529 kts | 108° |
| 2026-04-14 12:46 | 41.38699 | 36.11209 | 39338 ft | 530 kts | 108° |
| 2026-04-14 12:46 | 41.36178 | 36.20373 | 39346 ft | 530 kts | 109° |
| 2026-04-14 12:47 | 41.33637 | 36.29579 | 39348 ft | 530 kts | 109° |
| 2026-04-14 12:47 | 41.31088 | 36.38780 | 39353 ft | 530 kts | 109° |
| 2026-04-14 12:48 | 41.28536 | 36.47961 | 39350 ft | 529 kts | 109° |
| 2026-04-14 12:48 | 41.26484 | 36.57317 | 39368 ft | 526 kts | 98° |
| 2026-04-14 12:49 | 41.25601 | 36.66914 | 39380 ft | 523 kts | 92° |
| 2026-04-14 12:49 | 41.24951 | 36.76533 | 39372 ft | 523 kts | 92° |
| 2026-04-14 12:50 | 41.23876 | 36.90978 | 39366 ft | 524 kts | 92° |
| 2026-04-14 12:51 | 41.23126 | 37.00597 | 39358 ft | 523 kts | 93° |
| 2026-04-14 12:51 | 41.22372 | 37.10205 | 39353 ft | 523 kts | 93° |
| 2026-04-14 12:52 | 41.21614 | 37.19820 | 39355 ft | 523 kts | 93° |
| 2026-04-14 12:52 | 41.20881 | 37.29413 | 39359 ft | 522 kts | 92° |
| 2026-04-14 12:53 | 41.20200 | 37.39004 | 39360 ft | 522 kts | 92° |
| 2026-04-14 12:53 | 41.19505 | 37.48593 | 39384 ft | 522 kts | 92° |
| 2026-04-14 12:54 | 41.18812 | 37.58177 | 39357 ft | 520 kts | 91° |
| 2026-04-14 12:54 | 41.18283 | 37.67750 | 39350 ft | 519 kts | 93° |
| 2026-04-14 12:55 | 41.17404 | 37.77254 | 39359 ft | 518 kts | 94° |
| 2026-04-14 12:55 | 41.16536 | 37.86734 | 39370 ft | 517 kts | 94° |
| 2026-04-14 12:56 | 41.15759 | 37.96207 | 39377 ft | 516 kts | 92° |
| 2026-04-14 12:56 | 41.15032 | 38.05631 | 39400 ft | 516 kts | 92° |
| 2026-04-14 12:57 | 41.14275 | 38.15182 | 39379 ft | 518 kts | 93° |
| 2026-04-14 12:57 | 41.13506 | 38.24681 | 39403 ft | 519 kts | 93° |
| 2026-04-14 12:58 | 41.12723 | 38.34195 | 39391 ft | 519 kts | 94° |
| 2026-04-14 12:58 | 41.11926 | 38.43721 | 39374 ft | 520 kts | 94° |
| 2026-04-14 12:59 | 41.11128 | 38.53203 | 39374 ft | 521 kts | 94° |
| 2026-04-14 12:59 | 41.10319 | 38.62745 | 39365 ft | 521 kts | 94° |
| 2026-04-14 13:00 | 41.09520 | 38.72296 | 39364 ft | 522 kts | 94° |
| 2026-04-14 13:00 | 41.08659 | 38.81844 | 39365 ft | 522 kts | 94° |
| 2026-04-14 13:01 | 41.07772 | 38.91399 | 39369 ft | 523 kts | 95° |
| 2026-04-14 13:01 | 41.06884 | 39.00986 | 39358 ft | 524 kts | 95° |
| 2026-04-14 13:02 | 41.05995 | 39.10559 | 39364 ft | 524 kts | 95° |
| 2026-04-14 13:02 | 41.05103 | 39.20130 | 39377 ft | 524 kts | 95° |
| 2026-04-14 13:03 | 41.04224 | 39.29705 | 39372 ft | 524 kts | 95° |
| 2026-04-14 13:03 | 41.03338 | 39.39272 | 39389 ft | 523 kts | 95° |
| 2026-04-14 13:04 | 41.02443 | 39.48820 | 39410 ft | 522 kts | 95° |
| 2026-04-14 13:04 | 41.01537 | 39.58376 | 39422 ft | 523 kts | 95° |
| 2026-04-14 13:05 | 41.00628 | 39.67913 | 39430 ft | 522 kts | 95° |
| 2026-04-14 13:05 | 40.99972 | 39.77468 | 39417 ft | 520 kts | 87° |
| 2026-04-14 13:06 | 41.00503 | 39.86962 | 39422 ft | 515 kts | 76° |
| 2026-04-14 13:06 | 41.01906 | 39.96231 | 39425 ft | 513 kts | 74° |
| 2026-04-14 13:07 | 41.03357 | 40.05505 | 39419 ft | 514 kts | 75° |
| 2026-04-14 13:07 | 41.04768 | 40.14810 | 39381 ft | 516 kts | 75° |
| 2026-04-14 13:08 | 41.06148 | 40.24142 | 39378 ft | 517 kts | 75° |
| 2026-04-14 13:08 | 41.07517 | 40.33492 | 39363 ft | 517 kts | 75° |
| 2026-04-14 13:09 | 41.08875 | 40.42805 | 39362 ft | 518 kts | 75° |
| 2026-04-14 13:09 | 41.10234 | 40.52177 | 39362 ft | 518 kts | 75° |
| 2026-04-14 13:10 | 41.11588 | 40.61558 | 39374 ft | 518 kts | 75° |
| 2026-04-14 13:10 | 41.12935 | 40.70950 | 39357 ft | 519 kts | 76° |
| 2026-04-14 13:11 | 41.14284 | 40.80419 | 39380 ft | 519 kts | 76° |
| 2026-04-14 13:11 | 41.15611 | 40.89794 | 39366 ft | 521 kts | 76° |
| 2026-04-14 13:12 | 41.16942 | 40.99245 | 39361 ft | 521 kts | 76° |
| 2026-04-14 13:12 | 41.18264 | 41.08698 | 39356 ft | 521 kts | 76° |
| 2026-04-14 13:13 | 41.19576 | 41.18141 | 39369 ft | 520 kts | 76° |
| 2026-04-14 13:13 | 41.20882 | 41.27583 | 39360 ft | 520 kts | 76° |
| 2026-04-14 13:14 | 41.22179 | 41.37033 | 39357 ft | 520 kts | 76° |
| 2026-04-14 13:14 | 41.23468 | 41.46495 | 39330 ft | 520 kts | 77° |
| 2026-04-14 13:15 | 41.24747 | 41.55928 | 39375 ft | 518 kts | 77° |
| 2026-04-14 13:15 | 41.25805 | 41.63771 | 39345 ft | 519 kts | 77° |
| 2026-04-14 13:16 | 41.27068 | 41.73205 | 39349 ft | 519 kts | 77° |
| 2026-04-14 13:16 | 41.28323 | 41.82640 | 39353 ft | 518 kts | 77° |
| 2026-04-14 13:17 | 41.29572 | 41.92075 | 39344 ft | 518 kts | 77° |
| 2026-04-14 13:17 | 41.30806 | 42.01510 | 39360 ft | 517 kts | 78° |
| 2026-04-14 13:18 | 41.32019 | 42.10962 | 39340 ft | 518 kts | 78° |
| 2026-04-14 13:18 | 41.33219 | 42.20402 | 39325 ft | 517 kts | 78° |
| 2026-04-14 13:19 | 41.34410 | 42.29819 | 39337 ft | 515 kts | 78° |
| 2026-04-14 13:19 | 41.35595 | 42.39225 | 39324 ft | 516 kts | 78° |
| 2026-04-14 13:20 | 41.36772 | 42.48634 | 39310 ft | 515 kts | 78° |
| 2026-04-14 13:20 | 41.37936 | 42.58004 | 39287 ft | 516 kts | 78° |
| 2026-04-14 13:21 | 41.39101 | 42.67448 | 39270 ft | 518 kts | 78° |
| 2026-04-14 13:21 | 41.40268 | 42.76983 | 39273 ft | 518 kts | 78° |
| 2026-04-14 13:22 | 41.41421 | 42.86461 | 39253 ft | 519 kts | 78° |
| 2026-04-14 13:22 | 41.42531 | 42.95958 | 39245 ft | 520 kts | 82° |
| 2026-04-14 13:23 | 41.42740 | 43.05546 | 39224 ft | 522 kts | 91° |
| 2026-04-14 13:23 | 41.42435 | 43.15203 | 39236 ft | 522 kts | 91° |
| 2026-04-14 13:24 | 41.42132 | 43.24858 | 39238 ft | 522 kts | 91° |
| 2026-04-14 13:24 | 41.41733 | 43.39347 | 39250 ft | 522 kts | 91° |
| 2026-04-14 13:25 | 41.41471 | 43.48997 | 39234 ft | 521 kts | 91° |
| 2026-04-14 13:26 | 41.40916 | 43.68285 | 39256 ft | 521 kts | 92° |
| 2026-04-14 13:26 | 41.40624 | 43.77963 | 39246 ft | 523 kts | 92° |
| 2026-04-14 13:27 | 41.40323 | 43.87640 | 39245 ft | 523 kts | 92° |
| 2026-04-14 13:27 | 41.40015 | 43.97333 | 39211 ft | 524 kts | 92° |
| 2026-04-14 13:28 | 41.39698 | 44.07032 | 39205 ft | 524 kts | 92° |
| 2026-04-14 13:28 | 41.39372 | 44.16734 | 39200 ft | 525 kts | 92° |
| 2026-04-14 13:29 | 41.39039 | 44.26463 | 39191 ft | 525 kts | 92° |
| 2026-04-14 13:29 | 41.38696 | 44.36175 | 39171 ft | 525 kts | 92° |
| 2026-04-14 13:30 | 41.38346 | 44.45877 | 39175 ft | 524 kts | 92° |
| 2026-04-14 13:30 | 41.37988 | 44.55568 | 39169 ft | 524 kts | 92° |
| 2026-04-14 13:31 | 41.37623 | 44.65245 | 39171 ft | 523 kts | 92° |
| 2026-04-14 13:31 | 41.37250 | 44.74912 | 39174 ft | 523 kts | 92° |
| 2026-04-14 13:32 | 41.36869 | 44.84593 | 39168 ft | 523 kts | 92° |
| 2026-04-14 13:32 | 41.36483 | 44.94189 | 39181 ft | 523 kts | 93° |
| 2026-04-14 13:33 | 41.36046 | 45.03928 | 39188 ft | 524 kts | 96° |
| 2026-04-14 13:33 | 41.34677 | 45.13445 | 39184 ft | 524 kts | 108° |
| 2026-04-14 13:34 | 41.31112 | 45.27125 | 39182 ft | 525 kts | 110° |
| 2026-04-14 13:35 | 41.28709 | 45.36294 | 39202 ft | 526 kts | 110° |
| 2026-04-14 13:35 | 41.26332 | 45.45504 | 39178 ft | 526 kts | 110° |
| 2026-04-14 13:36 | 41.23957 | 45.54696 | 39167 ft | 526 kts | 110° |
| 2026-04-14 13:36 | 41.21575 | 45.63863 | 39171 ft | 525 kts | 110° |
| 2026-04-14 13:37 | 41.19173 | 45.73000 | 39171 ft | 524 kts | 110° |
| 2026-04-14 13:37 | 41.16752 | 45.82108 | 39150 ft | 523 kts | 110° |
| 2026-04-14 13:38 | 41.14325 | 45.91213 | 39160 ft | 522 kts | 110° |
| 2026-04-14 13:38 | 41.11902 | 46.00290 | 39168 ft | 522 kts | 110° |
| 2026-04-14 13:39 | 41.09471 | 46.09363 | 39173 ft | 523 kts | 110° |
| 2026-04-14 13:39 | 41.07031 | 46.18437 | 39165 ft | 523 kts | 110° |
| 2026-04-14 13:40 | 41.04585 | 46.27507 | 39169 ft | 523 kts | 110° |
| 2026-04-14 13:40 | 41.02159 | 46.36540 | 39184 ft | 523 kts | 110° |
| 2026-04-14 13:41 | 40.99744 | 46.45615 | 39157 ft | 522 kts | 110° |
| 2026-04-14 13:41 | 40.97314 | 46.54711 | 39160 ft | 519 kts | 110° |
| 2026-04-14 13:42 | 40.94899 | 46.63698 | 39165 ft | 518 kts | 111° |
| 2026-04-14 13:42 | 40.92497 | 46.72606 | 39165 ft | 517 kts | 111° |
| 2026-04-14 13:43 | 40.90837 | 46.81860 | 39165 ft | 516 kts | 93° |
| 2026-04-14 13:43 | 40.91375 | 46.91214 | 39163 ft | 514 kts | 75° |
| 2026-04-14 13:44 | 40.93155 | 47.00379 | 39201 ft | 514 kts | 74° |